createdAt,value
2018-08-20T16:00:46.925Z,2.90
2018-08-20T16:03:15.130Z,3.33
2018-08-20T16:05:43.310Z,3.60
2018-08-20T16:08:11.241Z,3.30
2018-08-20T16:10:39.435Z,2.50
2018-08-20T16:13:07.648Z,2.63
2018-08-20T16:15:36.727Z,2.40
2018-08-20T16:18:05.253Z,2.53
2018-08-20T16:20:33.433Z,2.30
2018-08-20T16:23:01.632Z,2.73
2018-08-20T16:25:29.941Z,2.70
2018-08-20T16:27:58.141Z,3.10
2018-08-20T16:30:26.444Z,2.83
2018-08-20T16:32:54.624Z,2.67
2018-08-20T16:35:22.847Z,2.80
2018-08-20T16:37:51.037Z,2.53
2018-08-20T16:40:19.249Z,2.20
2018-08-20T16:42:47.427Z,3.10
2018-08-20T16:45:15.604Z,2.73
2018-08-20T16:47:43.799Z,3.50
2018-08-20T16:50:12.897Z,2.60
2018-08-20T16:52:41.589Z,3.37
2018-08-20T16:55:10.394Z,2.97
2018-08-20T16:57:38.688Z,3.07
2018-08-20T17:00:08.953Z,3.17
2018-08-20T17:02:39.401Z,2.53
2018-08-20T17:05:08.755Z,2.70
2018-08-20T17:07:36.941Z,3.23
2018-08-20T17:10:05.501Z,3.00
2018-08-20T17:12:33.688Z,3.10
2018-08-20T17:15:01.680Z,3.40
2018-08-20T17:17:29.544Z,3.10
2018-08-20T17:19:57.619Z,3.30
2018-08-20T17:22:25.533Z,3.50
2018-08-20T17:24:53.802Z,3.30
2018-08-20T17:27:22.133Z,3.83
2018-08-20T17:29:52.388Z,3.93
2018-08-20T17:32:20.641Z,4.57
2018-08-20T17:34:48.587Z,7.60
2018-08-20T17:37:16.754Z,7.90
2018-08-20T17:39:57.517Z,8.90
2018-08-20T17:42:28.215Z,10.47
2018-08-20T17:44:56.369Z,10.30
2018-08-20T17:47:25.472Z,10.23
2018-08-20T17:49:54.753Z,10.50
2018-08-20T17:52:26.585Z,11.80
2018-08-20T17:54:55.530Z,10.23
2018-08-20T17:57:23.753Z,9.97
2018-08-20T17:59:51.959Z,10.50
2018-08-20T18:02:22.453Z,11.23
2018-08-20T18:04:50.512Z,10.80
2018-08-20T18:07:18.689Z,10.30
2018-08-20T18:09:46.621Z,10.93
2018-08-20T18:12:14.785Z,11.07
2018-08-20T18:14:43.441Z,10.80
2018-08-20T18:17:11.401Z,9.97
2018-08-20T18:19:39.338Z,11.57
2018-08-20T18:22:07.512Z,11.17
2018-08-20T18:24:35.717Z,10.73
2018-08-20T18:27:03.929Z,10.27
2018-08-20T18:29:32.107Z,11.13
2018-08-20T18:32:02.094Z,11.33
2018-08-20T18:34:30.285Z,10.97
2018-08-20T18:37:02.134Z,14.10
2018-08-20T18:39:30.322Z,11.37
2018-08-20T18:42:02.313Z,10.53
2018-08-20T18:44:30.288Z,11.10
2018-08-20T18:46:58.485Z,11.17
2018-08-20T18:49:26.699Z,10.50
2018-08-20T18:52:07.347Z,10.53
2018-08-20T18:54:39.625Z,10.10
2018-08-20T18:57:07.853Z,10.10
2018-08-20T18:59:37.225Z,9.07
2018-08-20T19:02:06.264Z,9.23
2018-08-20T19:04:39.968Z,10.67
2018-08-20T19:07:08.857Z,10.50
2018-08-20T19:09:37.438Z,9.50
2018-08-20T19:12:05.678Z,9.63
2018-08-20T19:14:33.887Z,9.50
2018-08-20T19:17:02.100Z,10.10
2018-08-20T19:19:34.549Z,8.97
2018-08-20T19:22:02.493Z,9.23
2018-08-20T19:24:34.930Z,9.10
2018-08-20T19:27:07.410Z,8.60
2018-08-20T19:29:35.385Z,9.17
2018-08-20T19:32:03.587Z,9.27
2018-08-20T19:34:31.539Z,8.70
2018-08-20T19:36:59.796Z,8.33
2018-08-20T19:39:27.985Z,8.80
2018-08-20T19:41:56.185Z,8.83
2018-08-20T19:44:24.374Z,8.07
2018-08-20T19:46:54.554Z,9.03
2018-08-20T19:49:23.113Z,8.87
2018-08-20T19:51:51.361Z,7.40
2018-08-20T19:54:19.569Z,8.20
2018-08-20T19:56:47.754Z,7.27
2018-08-20T19:59:26.463Z,7.63
2018-08-20T20:01:55.143Z,6.90
2018-08-20T20:04:23.338Z,6.00
2018-08-20T20:06:51.541Z,7.37
2018-08-20T20:09:19.737Z,6.40
2018-08-20T20:11:49.314Z,5.80
2018-08-20T20:14:17.511Z,6.93
2018-08-20T20:16:52.226Z,6.83
2018-08-20T20:19:20.277Z,7.53
2018-08-20T20:21:48.564Z,6.80
2018-08-20T20:24:16.736Z,7.33
2018-08-20T20:26:44.660Z,7.30
2018-08-20T20:29:12.865Z,6.13
2018-08-20T20:31:42.161Z,7.10
2018-08-20T20:34:10.542Z,7.00
2018-08-20T20:36:38.746Z,6.73
2018-08-20T20:39:09.561Z,6.70
2018-08-20T20:41:37.842Z,6.80
2018-08-20T20:44:06.188Z,9.47
2018-08-20T20:46:34.125Z,6.27
2018-08-20T20:49:02.288Z,6.37
2018-08-20T20:51:30.493Z,6.50
2018-08-20T20:53:58.649Z,6.03
2018-08-20T20:56:26.817Z,5.90
2018-08-20T20:58:55.005Z,5.80
2018-08-20T21:01:23.253Z,5.33
2018-08-20T21:03:51.318Z,5.20
2018-08-20T21:06:19.236Z,6.70
2018-08-20T21:08:48.410Z,6.00
2018-08-20T21:11:16.813Z,6.63
2018-08-20T21:13:45.398Z,6.27
2018-08-20T21:16:15.725Z,6.10
2018-08-20T21:18:46.388Z,6.77
2018-08-20T21:21:15.799Z,6.80
2018-08-20T21:23:44.043Z,6.50
2018-08-20T21:26:12.249Z,5.90
2018-08-20T21:28:45.277Z,6.33
2018-08-20T21:31:14.468Z,5.97
2018-08-20T21:33:43.371Z,6.27
2018-08-20T21:36:12.065Z,6.20
2018-08-20T21:38:40.274Z,5.43
2018-08-20T21:41:08.448Z,6.33
2018-08-20T21:43:41.941Z,6.10
2018-08-20T21:46:10.742Z,6.00
2018-08-20T21:48:39.078Z,5.97
2018-08-20T21:51:15.682Z,7.00
2018-08-20T21:53:43.609Z,6.20
2018-08-20T21:56:12.558Z,5.20
2018-08-20T21:58:41.913Z,6.30
